Terminal Aerodrome Forecast
Issued by NWS Flagstaff, AZ

Home | Current Version | Previous Version | Text Only | Print | Product List | Glossary On
Versions: 1 2 3 4 5 6 7 8 9 10 11 12 13 14 15 16 17
861
FTUS45 KFGZ 202344 CCA
TAFFLG
TAF COR
KFLG 202344Z 2100/2124 27011KT P6SM FEW025 BKN030 OVC050
      TEMPO 2100/2103 4SM -SHSN SCT009 BKN025 OVC045
     FM210400 VRB05KT P6SM FEW030 SCT050
     FM210600 VRB03KT P6SM SKC
     FM211800 04008G15KT P6SM SKC=

USA.gov is the U.S. government's official web portal to all federal, state and local government web resources and services.